Time;durP1;ratioP1;P1;durP2;ratioP2;P2;SDS_P1;SDS_P2;PMS_P1;PMS_P2;Temp;Humidity;BMP_temperature;BMP_pressure;BME280_temperature;BME280_humidity;BME280_pressure;Samples;Min_cycle;Max_cycle;Signal;HPM_P1;HPM_P2
2023/09/06 00:00:49;;;;;;;2.05;1.10;;;;;;;18.55;100.00;101125.28;4989479;28;20076;-79
2023/09/06 00:03:14;;;;;;;0.30;0.28;;;;;;;18.54;100.00;101096.97;4982339;28;20081;-78
2023/09/06 00:05:43;;;;;;;4.68;1.95;;;;;;;18.58;100.00;101129.66;4987156;28;20061;-77
2023/09/06 00:08:12;;;;;;;1.08;0.95;;;;;;;17.95;100.00;101030.03;4987808;28;20038;-78
2023/09/06 00:10:39;;;;;;;0.30;0.30;;;;;;;18.54;100.00;101131.53;4988837;28;20418;-77
2023/09/06 00:13:09;;;;;;;1.58;1.20;;;;;;;18.22;100.00;101072.88;4984795;28;20057;-79
2023/09/06 00:15:36;;;;;;;0.77;0.77;;;;;;;18.45;100.00;101104.25;4988758;28;20401;-80
2023/09/06 00:18:03;;;;;;;1.63;0.88;;;;;;;18.55;100.00;101122.63;4985554;28;20049;-79
2023/09/06 00:20:30;;;;;;;0.30;0.30;;;;;;;18.40;100.00;101117.63;4987688;28;20189;-80
2023/09/06 00:22:56;;;;;;;0.75;0.75;;;;;;;18.54;100.00;101138.59;4988435;28;20117;-81
2023/09/06 00:25:22;;;;;;;0.93;0.90;;;;;;;17.83;100.00;101020.53;4983382;28;20092;-77
2023/09/06 00:27:50;;;;;;;1.10;0.73;;;;;;;17.96;100.00;101038.84;4983608;28;20057;-81
2023/09/06 00:30:16;;;;;;;0.65;0.65;;;;;;;18.46;100.00;101114.84;4985641;28;20090;-80
2023/09/06 00:32:42;;;;;;;0.35;0.22;;;;;;;18.43;100.00;101108.75;4976205;28;20065;-78
2023/09/06 00:35:08;;;;;;;2.03;1.85;;;;;;;17.77;100.00;101003.81;4986598;28;20355;-79
2023/09/06 00:37:37;;;;;;;0.30;0.20;;;;;;;17.99;100.00;101044.13;4986889;28;20073;-78
2023/09/06 00:40:21;;;;;;;0.30;0.30;;;;;;;17.91;100.00;101047.81;4987664;28;20137;-77
2023/09/06 00:42:52;;;;;;;0.20;0.20;;;;;;;18.47;100.00;101129.91;4986366;28;20043;-78
2023/09/06 00:45:26;;;;;;;0.20;0.20;;;;;;;18.33;100.00;101095.66;4982189;28;20046;-75
2023/09/06 00:47:55;;;;;;;1.23;1.15;;;;;;;18.30;100.00;101101.00;4986741;28;20502;-79
2023/09/06 00:50:20;;;;;;;2.75;0.93;;;;;;;18.21;100.00;101095.00;4987622;28;20117;-77
2023/09/06 00:52:47;;;;;;;0.80;0.70;;;;;;;17.01;100.00;100877.94;4987892;28;20041;-76
2023/09/06 00:55:13;;;;;;;0.47;0.38;;;;;;;18.46;100.00;101121.97;4979502;28;20042;-78
2023/09/06 00:57:40;;;;;;;0.38;0.38;;;;;;;18.23;100.00;101102.03;4987078;28;20042;-78
2023/09/06 01:00:08;;;;;;;0.40;0.40;;;;;;;17.88;100.00;101037.22;4979073;28;20502;-78
2023/09/06 01:02:34;;;;;;;1.38;0.60;;;;;;;17.75;100.00;101005.63;4986186;28;20550;-77
2023/09/06 01:04:59;;;;;;;1.20;1.10;;;;;;;17.64;100.00;100992.59;4987841;28;20030;-77
2023/09/06 01:07:29;;;;;;;2.00;1.05;;;;;;;18.16;100.00;101065.03;4985531;28;20537;-78
2023/09/06 01:09:55;;;;;;;1.00;0.90;;;;;;;18.42;100.00;101112.28;4977815;28;20053;-80
2023/09/06 01:12:20;;;;;;;1.58;0.75;;;;;;;18.24;100.00;101079.00;4983067;28;20050;-76
2023/09/06 01:14:46;;;;;;;0.60;0.60;;;;;;;18.40;100.00;101107.00;4986948;28;20465;-77
2023/09/06 01:17:15;;;;;;;0.85;0.73;;;;;;;18.45;100.00;101118.44;4985047;28;20026;-78
2023/09/06 01:19:47;;;;;;;0.38;0.38;;;;;;;17.91;100.00;101021.25;4986944;28;20498;-78
2023/09/06 01:22:36;;;;;;;0.20;0.20;;;;;;;17.90;100.00;101018.63;4980386;28;20038;-76
2023/09/06 01:25:02;;;;;;;0.25;0.25;;;;;;;18.25;100.00;101072.81;4983453;28;20049;-78
2023/09/06 01:27:28;;;;;;;0.20;0.20;;;;;;;18.50;100.00;101121.00;4980264;28;20133;-77
2023/09/06 01:29:53;;;;;;;0.30;0.30;;;;;;;17.95;100.00;101048.63;4984698;28;20066;-76
2023/09/06 01:32:19;;;;;;;3.67;1.48;;;;;;;18.07;100.00;101053.66;4982014;28;20043;-78
2023/09/06 01:34:44;;;;;;;0.32;0.32;;;;;;;18.39;100.00;101099.94;4982924;28;20034;-79
2023/09/06 01:37:10;;;;;;;0.65;0.47;;;;;;;17.95;100.00;101006.13;4979792;28;20046;-77
2023/09/06 01:39:35;;;;;;;0.85;0.68;;;;;;;17.96;100.00;101021.16;4986279;28;20077;-78
2023/09/06 01:42:01;;;;;;;0.93;0.77;;;;;;;17.89;100.00;101024.84;4979945;28;20050;-75
2023/09/06 01:44:26;;;;;;;1.27;1.17;;;;;;;18.44;100.00;101116.66;4985306;28;20030;-79
2023/09/06 01:46:52;;;;;;;0.45;0.38;;;;;;;18.52;100.00;101116.53;4982796;28;20035;-77
2023/09/06 01:49:18;;;;;;;1.50;0.52;;;;;;;18.45;100.00;101110.47;4980682;28;20053;-77
2023/09/06 01:51:43;;;;;;;0.75;0.55;;;;;;;18.34;100.00;101091.19;4986577;28;20893;-76
2023/09/06 01:54:11;;;;;;;0.63;0.63;;;;;;;18.37;100.00;101085.81;4985728;28;20138;-75
2023/09/06 01:56:36;;;;;;;0.35;0.35;;;;;;;18.52;100.00;101111.22;4980934;28;20042;-76
2023/09/06 01:59:03;;;;;;;0.22;0.22;;;;;;;17.86;100.00;100995.69;4986524;28;20058;-78
2023/09/06 02:01:29;;;;;;;0.93;0.63;;;;;;;18.04;100.00;101039.59;4986423;28;20485;-79
2023/09/06 02:03:55;;;;;;;0.68;0.68;;;;;;;17.96;100.00;101025.59;4983558;28;20130;-81
2023/09/06 02:06:20;;;;;;;0.20;0.20;;;;;;;18.53;100.00;101118.25;4979320;28;20081;-77
2023/09/06 02:08:46;;;;;;;1.50;1.15;;;;;;;18.38;100.00;101099.97;4984250;28;20035;-80
2023/09/06 02:11:12;;;;;;;1.08;0.98;;;;;;;17.91;100.00;101018.59;4986742;28;20150;-77
2023/09/06 02:13:37;;;;;;;0.68;0.68;;;;;;;18.37;100.00;101098.22;4986757;28;20042;-80
2023/09/06 02:16:03;;;;;;;0.60;0.40;;;;;;;18.30;100.00;101095.69;4986618;28;20053;-80
2023/09/06 02:18:28;;;;;;;2.47;1.88;;;;;;;18.41;100.00;101129.16;4982406;28;20050;-79
2023/09/06 02:20:56;;;;;;;0.65;0.65;;;;;;;18.14;100.00;101084.53;4985792;28;20042;-78
2023/09/06 02:23:22;;;;;;;1.58;1.33;;;;;;;18.39;100.00;101126.53;4984465;28;20038;-78
2023/09/06 02:25:48;;;;;;;0.90;0.80;;;;;;;17.72;100.00;101012.75;4984660;28;20057;-79
2023/09/06 02:28:17;;;;;;;2.00;1.67;;;;;;;18.21;100.00;101109.16;4984370;28;20048;-77
2023/09/06 02:30:42;;;;;;;0.20;0.20;;;;;;;18.34;100.00;101126.63;4985474;28;20058;-78
2023/09/06 02:33:10;;;;;;;0.30;0.30;;;;;;;17.78;100.00;101030.34;4980248;28;20058;-77
2023/09/06 02:35:40;;;;;;;0.60;0.52;;;;;;;17.95;100.00;101064.53;4983356;28;20108;-78
2023/09/06 02:38:06;;;;;;;0.65;0.55;;;;;;;18.17;100.00;101107.50;4977811;28;20023;-78
2023/09/06 02:40:32;;;;;;;1.17;1.08;;;;;;;17.70;100.00;101033.16;4977279;28;20061;-79
2023/09/06 02:42:57;;;;;;;0.25;0.25;;;;;;;17.74;100.00;101041.91;4981005;28;20039;-79
2023/09/06 02:45:23;;;;;;;1.10;0.73;;;;;;;18.06;100.00;101096.22;4976253;28;20046;-78
2023/09/06 02:47:50;;;;;;;1.10;1.00;;;;;;;18.03;100.00;101098.94;4984340;28;20522;-77
2023/09/06 02:50:23;;;;;;;0.25;0.22;;;;;;;17.54;100.00;101025.53;4985278;28;20042;-77
2023/09/06 02:52:52;;;;;;;2.35;0.82;;;;;;;17.59;100.00;101031.63;4981980;28;20115;-79
2023/09/06 02:55:18;;;;;;;0.47;0.47;;;;;;;17.52;100.00;101031.72;4984187;28;20137;-78
2023/09/06 02:57:44;;;;;;;0.20;0.20;;;;;;;17.55;100.00;101030.78;4985370;28;20066;-78
2023/09/06 03:00:26;;;;;;;0.80;0.80;;;;;;;17.80;100.00;101063.03;4985196;28;20038;-77
2023/09/06 03:02:59;;;;;;;0.40;0.40;;;;;;;18.20;100.00;101128.69;5014902;28;20050;-77
2023/09/06 03:05:26;;;;;;;0.30;0.30;;;;;;;17.70;100.00;101058.81;4982598;28;20042;-77
2023/09/06 03:07:53;;;;;;;0.47;0.47;;;;;;;18.12;100.00;101120.88;4984691;28;20891;-77
2023/09/06 03:10:20;;;;;;;0.40;0.40;;;;;;;17.49;100.00;101020.31;4983477;28;20197;-78
2023/09/06 03:12:56;;;;;;;1.10;1.05;;;;;;;18.09;100.00;101130.66;4980882;28;20447;-78
2023/09/06 03:15:22;;;;;;;1.15;1.00;;;;;;;17.63;100.00;101052.75;4983846;28;20046;-78
2023/09/06 03:17:51;;;;;;;1.80;0.98;;;;;;;17.58;100.00;101037.81;4985816;28;20042;-78
2023/09/06 03:23:17;;;;;;;3.95;1.77;;;;;;;17.82;100.00;101103.75;4987658;28;20085;-79
2023/09/06 03:25:50;;;;;;;0.40;0.40;;;;;;;17.95;100.00;101122.97;4988265;28;20046;-79
2023/09/06 03:28:18;;;;;;;0.47;0.47;;;;;;;18.03;100.00;101137.00;4986904;28;20455;-78
2023/09/06 03:30:44;;;;;;;1.45;1.35;;;;;;;17.34;100.00;101020.56;4999034;28;20102;-78
2023/09/06 03:33:10;;;;;;;1.58;1.25;;;;;;;17.87;100.00;101115.16;4983002;28;20038;-79
2023/09/06 03:35:36;;;;;;;0.28;0.22;;;;;;;18.07;100.00;101157.25;4985200;28;20493;-78
2023/09/06 03:38:02;;;;;;;0.95;0.95;;;;;;;18.04;100.00;101149.34;4986764;28;20775;-78
2023/09/06 03:40:37;;;;;;;2.55;1.75;;;;;;;17.82;100.00;101113.50;4987708;28;20075;-78
2023/09/06 03:43:06;;;;;;;0.77;0.77;;;;;;;18.06;100.00;101157.28;4987157;28;20081;-77
2023/09/06 03:45:35;;;;;;;0.82;0.55;;;;;;;17.97;100.00;101139.75;4988742;28;20510;-77
2023/09/06 03:48:01;;;;;;;0.82;0.82;;;;;;;17.63;100.00;101087.25;4981443;28;20149;-76
2023/09/06 03:50:29;;;;;;;0.55;0.55;;;;;;;17.92;100.00;101133.66;4988371;28;20430;-79
2023/09/06 03:52:55;;;;;;;1.10;0.90;;;;;;;18.13;100.00;101154.47;4988874;28;20039;-80
2023/09/06 03:55:20;;;;;;;0.77;0.60;;;;;;;18.00;100.00;101128.19;4988853;28;20050;-80
2023/09/06 03:57:46;;;;;;;1.40;1.02;;;;;;;18.06;100.00;101139.56;4987063;28;20046;-78
2023/09/06 04:00:24;;;;;;;1.42;0.50;;;;;;;18.08;100.00;101148.38;4988669;28;20073;-77
2023/09/06 04:02:53;;;;;;;0.50;0.50;;;;;;;17.58;100.00;101053.72;4987900;28;20095;-77
2023/09/06 04:05:22;;;;;;;2.08;1.98;;;;;;;17.95;100.00;101107.03;4979949;28;20085;-80
2023/09/06 04:07:50;;;;;;;0.20;0.20;;;;;;;17.85;100.00;101102.81;4988816;28;20038;-80
2023/09/06 04:10:16;;;;;;;1.73;1.55;;;;;;;17.53;100.00;101056.47;4987583;28;20038;-79
2023/09/06 04:12:44;;;;;;;0.40;0.40;;;;;;;18.13;100.00;101154.47;4988026;28;20121;-79
2023/09/06 04:15:13;;;;;;;1.25;0.82;;;;;;;17.25;100.00;101000.38;4987958;28;20058;-80
2023/09/06 04:17:40;;;;;;;0.55;0.55;;;;;;;18.29;100.00;101165.69;4988180;28;20043;-78
2023/09/06 04:20:20;;;;;;;2.92;1.08;;;;;;;18.25;100.00;101171.97;4987479;28;20042;-78
2023/09/06 04:22:49;;;;;;;0.28;0.28;;;;;;;18.08;100.00;101147.53;4988134;28;20046;-77
2023/09/06 04:25:18;;;;;;;1.52;1.42;;;;;;;18.33;100.00;101177.13;4982468;28;20046;-77
2023/09/06 04:27:45;;;;;;;0.40;0.40;;;;;;;18.32;100.00;101146.16;4987954;28;20121;-80
2023/09/06 04:30:11;;;;;;;0.20;0.20;;;;;;;18.47;100.00;101179.50;4984218;28;20566;-78
2023/09/06 04:32:37;;;;;;;0.30;0.30;;;;;;;18.49;100.00;101178.56;4986663;28;20038;-77
2023/09/06 04:35:03;;;;;;;2.30;1.50;;;;;;;17.89;100.00;101088.59;4984619;28;20409;-77
2023/09/06 04:37:29;;;;;;;0.57;0.50;;;;;;;18.12;100.00;101104.94;4981118;28;20056;-79
2023/09/06 04:39:54;;;;;;;2.08;1.63;;;;;;;18.21;100.00;101106.50;4986818;28;20631;-77
2023/09/06 04:42:20;;;;;;;2.13;1.92;;;;;;;18.21;100.00;101105.63;4988305;28;20244;-78
2023/09/06 04:44:45;;;;;;;0.80;0.70;;;;;;;18.09;100.00;101096.13;4987243;28;20473;-77
2023/09/06 04:47:15;;;;;;;1.95;0.63;;;;;;;18.70;100.00;101192.31;4986881;28;20031;-78
2023/09/06 04:49:40;;;;;;;0.10;0.10;;;;;;;18.66;99.57;101180.00;4987319;28;20789;-78
2023/09/06 04:52:06;;;;;;;0.85;0.85;;;;;;;18.33;99.07;101093.00;4987470;28;20060;-78
2023/09/06 04:54:32;;;;;;;2.15;1.80;;;;;;;18.51;97.51;101122.72;4982741;28;20058;-78
2023/09/06 04:56:58;;;;;;;1.42;1.33;;;;;;;18.74;96.31;101155.00;4986968;28;20507;-79
2023/09/06 04:59:24;;;;;;;2.67;1.55;;;;;;;18.42;96.25;101091.91;4981843;28;20561;-80
2023/09/06 05:01:49;;;;;;;3.47;0.77;;;;;;;18.69;95.33;101110.81;4979878;28;20042;-79
2023/09/06 05:04:15;;;;;;;1.10;1.00;;;;;;;18.86;89.60;101099.84;4985112;28;20065;-77
2023/09/06 05:06:40;;;;;;;0.25;0.25;;;;;;;19.39;83.90;101127.81;4978863;28;20132;-78
2023/09/06 05:09:10;;;;;;;0.80;0.77;;;;;;;19.71;85.00;101207.78;4984423;28;20597;-79
2023/09/06 05:11:36;;;;;;;0.20;0.20;;;;;;;19.89;81.15;101193.16;4980642;28;20070;-78
2023/09/06 05:14:01;;;;;;;1.08;0.95;;;;;;;19.90;79.41;101224.19;4983496;28;20542;-78
2023/09/06 05:16:27;;;;;;;3.17;1.92;;;;;;;19.42;79.49;101118.88;4985603;28;20069;-78
2023/09/06 05:18:52;;;;;;;1.35;0.95;;;;;;;20.61;72.25;101169.88;4986284;28;20058;-78
2023/09/06 05:21:18;;;;;;;0.60;0.60;;;;;;;20.23;74.27;101211.78;4985778;28;20050;-76
2023/09/06 05:23:43;;;;;;;1.40;1.13;;;;;;;20.13;76.39;101199.59;4984981;28;20057;-81
2023/09/06 05:26:10;;;;;;;1.40;1.25;;;;;;;19.73;74.81;101126.94;4982660;28;20022;-77
2023/09/06 05:28:35;;;;;;;1.45;1.13;;;;;;;20.32;75.98;101216.88;4986092;28;20049;-77
2023/09/06 05:31:03;;;;;;;1.08;0.98;;;;;;;20.50;71.55;101143.47;4983618;28;20062;-78
2023/09/06 05:33:30;;;;;;;0.88;0.85;;;;;;;20.20;71.60;101146.09;4985111;28;20064;-79
2023/09/06 05:35:56;;;;;;;0.57;0.45;;;;;;;21.02;69.63;101224.63;4983681;28;20050;-76
2023/09/06 05:38:22;;;;;;;0.73;0.73;;;;;;;21.23;65.86;101137.66;4985045;28;20041;-77
2023/09/06 05:40:50;;;;;;;0.43;0.40;;;;;;;21.58;65.20;101230.94;4976994;28;20038;-80
2023/09/06 05:43:15;;;;;;;2.53;2.33;;;;;;;21.37;67.59;101229.78;4978543;28;20156;-78
2023/09/06 05:45:41;;;;;;;0.50;0.50;;;;;;;20.80;69.45;101228.88;4985488;28;20583;-77
2023/09/06 05:48:07;;;;;;;0.60;0.60;;;;;;;21.31;68.39;101227.34;4985410;28;20042;-78
2023/09/06 05:50:32;;;;;;;0.20;0.20;;;;;;;21.36;64.88;101226.25;4984525;28;20843;-78
2023/09/06 05:52:57;;;;;;;1.05;0.98;;;;;;;20.77;68.06;101143.63;4985508;28;20034;-78
2023/09/06 05:55:23;;;;;;;0.30;0.30;;;;;;;20.68;69.11;101205.22;4983879;28;20050;-79
2023/09/06 05:57:49;;;;;;;0.20;0.20;;;;;;;20.59;72.28;101222.38;4983155;28;20186;-79
2023/09/06 06:00:15;;;;;;;0.20;0.20;;;;;;;19.90;73.58;101131.84;4984161;28;20043;-80
2023/09/06 06:02:49;;;;;;;0.95;0.73;;;;;;;20.61;73.90;101234.72;4982884;28;20125;-77
2023/09/06 06:05:14;;;;;;;1.48;1.38;;;;;;;20.93;72.38;101202.69;4983109;28;20130;-77
2023/09/06 06:07:41;;;;;;;11.10;1.38;;;;;;;20.64;71.79;101148.44;4981267;28;20113;-77
2023/09/06 06:10:10;;;;;;;0.75;0.75;;;;;;;21.10;69.34;101144.34;4985053;28;20038;-79
2023/09/06 06:12:38;;;;;;;0.30;0.30;;;;;;;22.21;65.81;101236.84;4982236;28;20517;-77
2023/09/06 06:15:14;;;;;;;0.85;0.85;;;;;;;21.88;64.43;101163.09;4983001;28;20548;-77
2023/09/06 06:17:40;;;;;;;0.82;0.82;;;;;;;22.12;63.70;101163.16;4986435;28;20135;-76
2023/09/06 06:20:07;;;;;;;0.40;0.40;;;;;;;22.78;62.38;101235.69;4996238;28;20034;-77
2023/09/06 06:22:38;;;;;;;1.10;0.77;;;;;;;22.18;61.31;101160.28;4982648;28;20172;-76
2023/09/06 06:25:07;;;;;;;2.92;1.38;;;;;;;22.38;62.08;101161.38;4984217;28;20573;-77
2023/09/06 06:27:33;;;;;;;4.50;2.78;;;;;;;23.34;91.22;101146.94;4982086;28;20054;-80
2023/09/06 06:29:58;;;;;;;0.20;0.20;;;;;;;23.04;65.09;101215.06;4981417;28;20046;-80
2023/09/06 06:32:24;;;;;;;0.98;0.90;;;;;;;23.33;70.60;101232.69;4980211;28;20615;-79
2023/09/06 06:34:54;;;;;;;0.60;0.57;;;;;;;23.28;74.16;101179.31;4986226;28;20034;-80
2023/09/06 06:37:21;;;;;;;0.65;0.65;;;;;;;22.36;69.36;101144.50;4975348;28;20097;-77
2023/09/06 06:39:46;;;;;;;0.25;0.22;;;;;;;22.79;69.54;101252.59;4984069;28;20078;-75
2023/09/06 06:42:12;;;;;;;0.63;0.60;;;;;;;22.88;68.49;101234.38;4985780;28;20646;-79
2023/09/06 06:44:37;;;;;;;0.70;0.60;;;;;;;22.75;68.67;101219.72;4985622;28;20054;-80
2023/09/06 06:47:04;;;;;;;0.38;0.35;;;;;;;22.58;70.83;101161.50;4983529;28;20045;-77
2023/09/06 06:49:30;;;;;;;1.60;1.13;;;;;;;23.23;69.69;101245.56;4982669;28;20050;-79
2023/09/06 06:51:55;;;;;;;8.30;1.55;;;;;;;23.67;68.88;101248.28;4985393;28;20478;-77
2023/09/06 06:54:21;;;;;;;1.50;1.08;;;;;;;23.24;67.77;101179.50;4986710;28;20490;-78
2023/09/06 06:56:46;;;;;;;0.75;0.70;;;;;;;23.53;67.86;101226.50;4989294;28;20417;-79
2023/09/06 06:59:12;;;;;;;1.33;0.43;;;;;;;23.35;67.98;101245.06;4986765;28;20053;-79
2023/09/06 07:01:38;;;;;;;0.20;0.20;;;;;;;22.20;70.08;101158.44;5022133;28;20049;-79
2023/09/06 07:04:06;;;;;;;0.68;0.68;;;;;;;22.53;71.64;101180.41;4984541;28;20039;-79
2023/09/06 07:06:32;;;;;;;0.82;0.77;;;;;;;22.72;72.19;101230.53;4982473;28;20039;-78
2023/09/06 07:08:58;;;;;;;0.70;0.70;;;;;;;22.54;74.83;101165.22;4986244;28;20094;-80
2023/09/06 07:11:23;;;;;;;0.73;0.73;;;;;;;22.81;73.89;101248.94;4987625;28;20026;-79
2023/09/06 07:13:50;;;;;;;0.85;0.85;;;;;;;22.65;74.13;101207.63;4984797;28;20122;-79
2023/09/06 07:16:17;;;;;;;0.57;0.57;;;;;;;22.49;74.26;101154.69;4988605;28;20113;-78
2023/09/06 07:18:43;;;;;;;2.95;1.08;;;;;;;23.21;73.68;101155.53;4986201;28;20146;-79
2023/09/06 07:21:09;;;;;;;0.95;0.60;;;;;;;23.10;70.53;101159.47;4987891;28;20497;-80
2023/09/06 07:23:35;;;;;;;0.50;0.50;;;;;;;24.17;73.79;101239.03;4983705;28;20148;-78
2023/09/06 07:26:00;;;;;;;0.65;0.65;;;;;;;23.39;71.18;101237.81;4987882;28;20455;-77
2023/09/06 07:28:44;;;;;;;0.45;0.45;;;;;;;23.61;73.34;101232.44;4984942;28;20145;-79
2023/09/06 07:31:10;;;;;;;0.68;0.68;;;;;;;23.25;74.33;101216.03;4988452;28;20157;-78
2023/09/06 07:33:36;;;;;;;1.17;1.08;;;;;;;23.38;74.57;101147.66;4985422;28;20114;-76
2023/09/06 07:36:02;;;;;;;1.13;0.77;;;;;;;23.32;72.16;101172.91;4988121;28;20479;-79
2023/09/06 07:38:28;;;;;;;0.55;0.55;;;;;;;23.17;72.17;101082.47;4988434;28;20034;-78
2023/09/06 07:41:01;;;;;;;5.53;1.45;;;;;;;23.62;72.27;101218.09;4992844;28;20096;-79
2023/09/06 07:43:28;;;;;;;1.45;1.33;;;;;;;23.34;74.11;101152.28;4987460;28;20149;-78
2023/09/06 07:46:06;;;;;;;1.63;1.23;;;;;;;22.87;77.03;101165.72;4988047;28;20509;-80
2023/09/06 07:48:32;;;;;;;1.80;1.15;;;;;;;23.16;76.37;101169.97;4988109;28;20046;-80
2023/09/06 07:50:59;;;;;;;0.55;0.55;;;;;;;23.17;76.49;101219.03;4987824;28;20042;-79
2023/09/06 07:53:25;;;;;;;1.65;1.55;;;;;;;23.87;74.94;101211.75;4988265;28;20509;-78
2023/09/06 07:55:52;;;;;;;0.25;0.25;;;;;;;24.37;71.86;101246.19;4987592;28;20049;-80
2023/09/06 07:58:17;;;;;;;0.75;0.50;;;;;;;23.66;71.26;101224.19;5019042;28;20061;-79
2023/09/06 08:00:43;;;;;;;1.88;1.77;;;;;;;23.52;74.73;101243.53;4985908;28;20050;-78
2023/09/06 08:03:09;;;;;;;0.57;0.57;;;;;;;23.65;74.74;101238.53;4988355;28;20050;-79
2023/09/06 08:05:35;;;;;;;1.67;1.58;;;;;;;23.53;75.04;101234.53;4983014;28;20062;-79
2023/09/06 08:08:02;;;;;;;0.98;0.90;;;;;;;23.57;75.01;101134.34;4984586;28;20184;-80
2023/09/06 08:10:28;;;;;;;6.93;3.42;;;;;;;23.37;72.81;101157.50;4987478;28;20050;-80
2023/09/06 08:12:53;;;;;;;0.30;0.30;;;;;;;23.65;70.80;101177.78;4986312;28;20101;-78
2023/09/06 08:15:19;;;;;;;2.13;1.35;;;;;;;23.84;71.97;101236.00;4983464;28;20407;-76
2023/09/06 08:17:47;;;;;;;2.13;1.92;;;;;;;23.24;73.36;101164.28;4986723;28;20034;-77
2023/09/06 08:20:16;;;;;;;0.65;0.47;;;;;;;23.60;72.55;101180.66;4987411;28;20092;-76
2023/09/06 08:22:42;;;;;;;1.23;0.90;;;;;;;23.86;72.77;101159.06;4983289;28;20656;-78
2023/09/06 08:25:08;;;;;;;1.35;1.00;;;;;;;24.44;71.21;101223.53;4982324;28;20046;-76
2023/09/06 08:27:34;;;;;;;0.40;0.38;;;;;;;24.52;70.24;101216.03;4987620;28;20129;-78
2023/09/06 08:29:59;;;;;;;1.98;0.85;;;;;;;24.62;68.70;101230.78;4984052;28;20443;-76
2023/09/06 08:32:25;;;;;;;0.43;0.40;;;;;;;24.58;68.34;101222.94;4985431;28;20049;-76
2023/09/06 08:34:50;;;;;;;2.65;1.33;;;;;;;24.83;66.91;101234.28;4980616;28;20066;-75
2023/09/06 08:37:16;;;;;;;0.70;0.70;;;;;;;24.95;66.80;101238.22;4979806;28;20046;-78
2023/09/06 08:39:41;;;;;;;2.53;2.05;;;;;;;24.37;62.86;101157.66;4984459;28;20057;-76
2023/09/06 08:42:07;;;;;;;1.85;0.75;;;;;;;24.23;62.83;101169.91;4977803;28;20042;-75
2023/09/06 08:44:35;;;;;;;1.10;0.93;;;;;;;24.07;63.97;101109.88;4981642;28;20058;-77
2023/09/06 08:47:04;;;;;;;0.75;0.60;;;;;;;24.43;62.29;101208.38;4986610;28;20030;-76
2023/09/06 08:49:30;;;;;;;1.20;1.15;;;;;;;24.30;64.80;101228.63;5003026;28;20122;-74
2023/09/06 08:51:57;;;;;;;0.80;0.80;;;;;;;24.13;63.79;101162.34;4986841;28;20066;-74
2023/09/06 08:54:23;;;;;;;0.73;0.50;;;;;;;24.61;68.73;101233.56;4982028;28;20850;-75
2023/09/06 08:56:50;;;;;;;0.73;0.73;;;;;;;25.00;67.19;101246.91;4976958;28;20043;-75
2023/09/06 08:59:18;;;;;;;1.02;0.93;;;;;;;24.60;68.45;101172.75;4977708;28;20057;-75
2023/09/06 09:01:43;;;;;;;1.00;0.82;;;;;;;24.42;62.29;101215.56;4985922;28;20034;-74
2023/09/06 09:04:09;;;;;;;2.50;1.70;;;;;;;24.62;62.59;101249.56;4986995;28;20486;-74
2023/09/06 09:06:35;;;;;;;0.95;0.95;;;;;;;24.59;61.71;101171.88;4980696;28;20066;-75
2023/09/06 09:09:19;;;;;;;1.65;1.23;;;;;;;24.42;61.22;101186.06;4976029;28;20053;-76
2023/09/06 09:11:49;;;;;;;0.57;0.40;;;;;;;24.60;61.86;101160.19;4976205;28;20042;-74
2023/09/06 09:14:25;;;;;;;1.58;1.48;;;;;;;25.11;67.07;101227.63;4987295;28;20501;-75
2023/09/06 09:16:58;;;;;;;0.70;0.52;;;;;;;24.15;61.08;101179.25;4982704;28;20046;-74
2023/09/06 09:19:25;;;;;;;2.20;1.42;;;;;;;24.58;61.47;101221.16;4984640;28;20070;-77
2023/09/06 09:21:51;;;;;;;2.38;1.00;;;;;;;24.87;61.55;101243.09;4981738;28;20057;-75
2023/09/06 09:24:32;;;;;;;0.90;0.77;;;;;;;25.41;63.32;101248.63;4977429;28;20063;-76
2023/09/06 09:26:58;;;;;;;1.70;0.63;;;;;;;25.54;61.62;101249.75;4983708;28;20173;-74
2023/09/06 09:29:25;;;;;;;0.98;0.95;;;;;;;25.14;65.80;101172.88;4985180;28;20161;-76
2023/09/06 09:31:50;;;;;;;0.90;0.77;;;;;;;25.29;64.40;101164.13;4983260;28;20499;-77
2023/09/06 09:34:17;;;;;;;0.10;0.10;;;;;;;25.63;61.51;101237.69;4982825;28;20054;-74
2023/09/06 09:36:52;;;;;;;0.20;0.20;;;;;;;24.70;58.56;101162.44;4976001;28;20046;-76
2023/09/06 09:39:18;;;;;;;0.63;0.60;;;;;;;24.94;59.58;101169.34;4984790;28;20054;-74
2023/09/06 09:41:44;;;;;;;0.30;0.30;;;;;;;24.53;58.98;101161.44;4982987;28;20074;-74
2023/09/06 09:44:13;;;;;;;0.77;0.77;;;;;;;25.40;57.83;101249.56;4982290;28;20041;-80
2023/09/06 09:46:44;;;;;;;0.85;0.73;;;;;;;25.75;59.19;101225.44;4986003;28;20066;-78
2023/09/06 09:49:11;;;;;;;1.95;1.85;;;;;;;26.14;57.29;101253.97;4981730;28;20051;-75
2023/09/06 09:51:38;;;;;;;0.17;0.17;;;;;;;26.09;57.29;101244.31;4980449;28;20051;-76
2023/09/06 09:54:04;;;;;;;0.40;0.40;;;;;;;25.49;54.63;101166.66;4983480;28;20042;-74
2023/09/06 09:56:33;;;;;;;0.80;0.80;;;;;;;25.51;54.83;101251.72;4984405;28;20034;-76
2023/09/06 09:59:03;;;;;;;0.20;0.20;;;;;;;24.85;56.08;101154.53;4986662;28;20061;-76
2023/09/06 10:01:31;;;;;;;0.67;0.50;;;;;;;25.56;55.47;101233.56;4985612;28;20050;-74
2023/09/06 10:04:00;;;;;;;1.67;1.42;;;;;;;25.64;56.16;101159.66;4986449;28;20060;-78
2023/09/06 10:06:32;;;;;;;1.55;1.33;;;;;;;25.68;54.87;101139.75;4985453;28;20058;-75
2023/09/06 10:09:01;;;;;;;2.25;2.08;;;;;;;25.51;53.46;101160.34;4980824;28;20053;-78
2023/09/06 10:11:26;;;;;;;0.43;0.40;;;;;;;26.01;54.59;101243.84;4984721;28;20061;-74
2023/09/06 10:13:53;;;;;;;0.75;0.75;;;;;;;25.87;53.07;101240.97;4987162;28;20534;-74
2023/09/06 10:16:20;;;;;;;0.80;0.80;;;;;;;25.40;53.18;101161.78;4986354;28;20050;-77
2023/09/06 10:18:46;;;;;;;1.13;1.08;;;;;;;26.67;52.58;101218.00;4985657;28;20065;-74
2023/09/06 10:21:13;;;;;;;1.23;1.10;;;;;;;26.04;52.36;101216.78;4976980;28;20054;-77
2023/09/06 10:23:42;;;;;;;1.20;1.08;;;;;;;25.95;54.37;101122.28;4982122;28;20039;-81
2023/09/06 10:26:08;;;;;;;2.05;0.77;;;;;;;27.17;53.19;101228.63;4983565;28;20034;-79
2023/09/06 10:28:34;;;;;;;0.93;0.80;;;;;;;27.83;50.35;101229.41;4985556;28;20054;-76
2023/09/06 10:31:07;;;;;;;2.92;2.60;;;;;;;26.88;51.33;101149.47;4988305;28;20069;-75
2023/09/06 10:33:35;;;;;;;2.08;1.92;;;;;;;28.15;50.41;101240.09;4988789;28;20054;-74
2023/09/06 10:36:17;;;;;;;1.20;0.77;;;;;;;27.44;51.27;101200.22;4986766;28;20054;-75
2023/09/06 10:38:55;;;;;;;1.65;0.63;;;;;;;27.93;47.78;101230.63;4984888;28;20043;-78
2023/09/06 10:41:26;;;;;;;0.43;0.35;;;;;;;28.61;48.62;101216.56;4987595;28;20109;-75
2023/09/06 10:43:57;;;;;;;0.25;0.25;;;;;;;27.96;46.32;101238.50;4988889;28;20034;-81
2023/09/06 10:46:28;;;;;;;5.10;2.88;;;;;;;27.09;46.61;101209.34;4985786;28;20069;-77
2023/09/06 10:49:12;;;;;;;0.68;0.68;;;;;;;27.37;47.00;101237.47;4981872;28;20050;-75
2023/09/06 10:52:01;;;;;;;0.20;0.20;;;;;;;28.06;46.96;101162.41;4986375;28;20140;-73
2023/09/06 10:54:47;;;;;;;0.30;0.30;;;;;;;28.22;45.64;101224.41;4983785;28;20046;-75
2023/09/06 10:57:14;;;;;;;2.05;1.33;;;;;;;27.75;46.69;101215.50;4979161;28;20046;-76
2023/09/06 10:59:58;;;;;;;1.05;0.57;;;;;;;27.29;48.41;101140.00;4985573;28;20136;-76
2023/09/06 11:02:26;;;;;;;0.73;0.68;;;;;;;26.84;47.00;101134.44;4988694;28;20050;-77
2023/09/06 11:05:14;;;;;;;0.50;0.45;;;;;;;27.08;47.49;101218.38;4989801;28;20512;-76
2023/09/06 11:07:43;;;;;;;2.00;0.43;;;;;;;27.50;49.45;101189.09;4983203;28;20090;-75
2023/09/06 11:10:09;;;;;;;0.90;0.68;;;;;;;27.73;50.97;101106.81;4989138;28;20382;-76
2023/09/06 11:12:35;;;;;;;0.40;0.40;;;;;;;28.41;45.89;101184.50;4987260;28;20066;-77
2023/09/06 11:15:01;;;;;;;0.75;0.57;;;;;;;27.83;46.22;101182.66;4988924;28;20042;-74
2023/09/06 11:17:27;;;;;;;1.17;1.00;;;;;;;27.95;47.74;101101.84;4989153;28;20042;-79
2023/09/06 11:19:52;;;;;;;1.50;1.40;;;;;;;28.82;46.87;101202.66;4996806;28;20111;-74
2023/09/06 11:22:19;;;;;;;0.50;0.40;;;;;;;28.05;51.59;101117.47;4989340;28;20517;-77
2023/09/06 11:24:45;;;;;;;0.43;0.43;;;;;;;28.28;53.13;101180.84;4997002;28;20062;-77
2023/09/06 11:27:33;;;;;;;1.13;1.13;;;;;;;27.36;46.90;100958.94;4990339;28;20038;-77